Flight Track Log - Related Links

Times and Time Zones

All times are in EST time to prevent confusion due to time zone crossing. See the AAY894 flight status page for this flight to view local times or setup timezone preferences in your user account.

Time Position Orientation Groundspeed Altitude Reporting Facility
EST Latitude Longitude Course Direction KTS MPH feet Rate Location/Type
Tue 06:38:13 27.9333 -82.6833 319° Northwest 171 197 900  Level Tampa TRACON
Tue 06:38:43 27.9500 -82.7000 319° Northwest 163 188 1,700 1,600 Climbing Tampa TRACON
Tue 06:39:43 28.0000 -82.6500 41° Northeast 260 299 3,300 2,284 Climbing Tampa TRACON
Tue 06:41:18 28.1225 -82.6361 North 294 338 7,600 2,671 Climbing Jacksonville Center
Tue 06:42:18 28.2039 -82.6147 13° North 294 338 10,200 2,150 Climbing Jacksonville Center
Tue 06:43:18 28.2894 -82.5908 14° North 299 344 11,900 1,550 Climbing Jacksonville Center
Tue 06:44:18 28.3894 -82.6022 354° North 324 373 13,300 1,850 Climbing Jacksonville Center
Tue 06:45:18 28.5022 -82.6114 356° North 366 421 15,600 2,200 Climbing Jacksonville Center
Tue 06:46:18 28.6192 -82.6231 355° North 398 458 17,700 1,850 Climbing Jacksonville Center
Tue 06:47:18 28.7486 -82.6344 356° North 421 484 19,300 1,600 Climbing Jacksonville Center
Tue 06:48:18 28.8717 -82.6436 356° North 431 496 20,900 1,550 Climbing Jacksonville Center
Tue 06:49:18 28.9992 -82.6575 355° North 448 516 22,400 1,450 Climbing Jacksonville Center
Tue 06:50:18 29.1306 -82.6644 357° North 458 527 23,800 1,650 Climbing Jacksonville Center
Tue 06:51:18 29.2517 -82.6736 356° North 476 548 25,700 1,800 Climbing Jacksonville Center
Tue 06:52:18 29.3833 -82.6806 357° North 476 548 27,400 1,650 Climbing Jacksonville Center
Tue 06:53:18 29.5314 -82.6944 355° North 478 550 29,000 1,250 Climbing Jacksonville Center
Tue 06:54:18 29.6608 -82.6942 360° North 470 541 29,900 900 Climbing Jacksonville Center
Tue 06:55:18 29.7925 -82.7011 357° North 475 547 30,800 1,150 Climbing Jacksonville Center
Tue 06:56:18 29.9261 -82.6936 North 475 547 32,200 1,100 Climbing Jacksonville Center
Tue 06:57:18 30.0450 -82.6717 North 480 552 33,000 400 Climbing Jacksonville Center
Tue 06:58:18 30.1786 -82.6547 North 480 552 33,000  Level Jacksonville Center
Tue 06:59:18 30.3247 -82.6375 North 480 552 33,000  Level Jacksonville Center
Tue 07:00:18 30.4583 -82.6178 North 480 552 33,000  Level Jacksonville Center
Tue 07:01:18 30.5772 -82.6031 North 480 552 33,000  Level Jacksonville Center
Tue 07:02:18 30.7108 -82.5808 North 480 552 33,000  Level Jacksonville Center
Tue 07:03:18 30.8444 -82.5636 North 480 552 33,000  Level Jacksonville Center
Tue 07:04:18 30.9800 -82.5436 North 480 552 33,000 -50 Level Jacksonville Center
Tue 07:05:18 31.1136 -82.5261 North 480 552 32,900  Descending Jacksonville Center
Tue 07:06:18 31.2494 -82.5061 North 486 559 33,000 50 Climbing Jacksonville Center
Tue 07:07:18 31.3872 -82.4836 North 486 559 33,000  Level Jacksonville Center
Tue 07:08:18 31.5228 -82.4611 North 481 554 33,000  Level Jacksonville Center
Tue 07:09:18 31.6583 -82.4411 North 481 554 33,000  Level Jacksonville Center
Tue 07:11:27 31.9528 -82.3989 North 485 558 33,000  Level Atlanta Center
Tue 07:12:27 32.0881 -82.3792 North 485 558 33,000  Level Atlanta Center
Tue 07:13:27 32.2256 -82.3594 North 485 558 33,000  Level Atlanta Center
Tue 07:14:27 32.3611 -82.3372 North 485 558 33,000  Level Atlanta Center
Tue 07:15:27 32.4986 -82.3172 North 490 564 33,000  Level Atlanta Center
Tue 07:16:27 32.6381 -82.2972 North 495 570 33,000  Level Atlanta Center
Tue 07:17:27 32.7756 -82.2772 North 495 570 33,000  Level Atlanta Center
Tue 07:18:27 32.9172 -82.2547 North 502 578 33,000  Level Atlanta Center
Tue 07:19:27 33.0547 -82.2344 North 502 578 33,000  Level Atlanta Center
Tue 07:20:27 33.1942 -82.2142 North 502 578 33,000  Level Atlanta Center
Tue 07:21:27 33.3336 -82.1914 North 502 578 33,000  Level Atlanta Center
Tue 07:22:27 33.4897 -82.1681 North 502 578 33,000  Level Atlanta Center
Tue 07:23:27 33.6294 -82.1453 North 502 578 33,000  Level Atlanta Center
Tue 07:24:27 33.7711 -82.1244 North 502 578 33,000  Level Atlanta Center
Tue 07:25:27 33.9125 -82.1039 North 502 578 33,000  Level Atlanta Center
Tue 07:26:27 34.0542 -82.0781 North 508 585 33,000  Level Atlanta Center
Tue 07:27:27 34.1975 -82.0397 12° North 513 590 33,000  Level Atlanta Center
Tue 07:28:27 34.3431 -82.0008 12° North 518 596 33,000  Level Atlanta Center
Tue 07:29:27 34.4864 -81.9672 11° North 525 604 33,000  Level Atlanta Center
Tue 07:30:27 34.6194 -81.9311 13° North 525 604 33,000  Level Atlanta Center
Tue 07:31:27 34.7772 -81.8942 11° North 525 604 33,000  Level Atlanta Center
Tue 07:32:27 34.9206 -81.8578 12° North 525 604 33,000  Level Atlanta Center
Tue 07:33:27 35.0639 -81.8208 12° North 525 604 33,000  Level Atlanta Center
Tue 07:34:27 35.2114 -81.7864 11° North 525 604 33,000  Level Atlanta Center
Tue 07:35:27 35.3547 -81.7469 13° North 525 604 33,000  Level Atlanta Center
Tue 07:36:27 35.5000 -81.7097 12° North 525 604 33,000  Level Atlanta Center
Tue 07:37:27 35.6453 -81.6722 12° North 525 604 33,000  Level Atlanta Center
Tue 07:38:27 35.7864 -81.6350 12° North 525 604 33,000  Level Atlanta Center
Tue 07:39:27 35.9256 -81.5975 12° North 520 598 33,000  Level Atlanta Center
Tue 07:40:27 36.0603 -81.5625 12° North 512 589 33,000  Level Atlanta Center
Tue 07:41:27 36.2014 -81.5222 13° North 507 583 33,000  Level Atlanta Center
Tue 07:42:27 36.3383 -81.4844 13° North 507 583 33,000  Level Atlanta Center
Tue 07:43:27 36.4753 -81.4492 12° North 507 583 33,000  Level Atlanta Center
Tue 07:44:27 36.6058 -81.4139 12° North 502 578 33,000  Level Atlanta Center
Tue 07:46:16 36.8558 -81.3472 12° North 506 582 33,000  Level Indianapolis Center
Tue 07:47:17 36.9889 -81.3122 12° North 499 574 33,000  Level Indianapolis Center
Tue 07:48:18 37.1250 -81.2736 13° North 500 575 33,000  Level Indianapolis Center
Tue 07:49:19 37.2644 -81.2369 12° North 508 585 33,000  Level Indianapolis Center
Tue 07:50:20 37.3944 -81.2011 12° North 507 583 33,000  Level Indianapolis Center
Tue 07:51:22 37.5536 -81.1561 13° North 499 574 33,000  Level Indianapolis Center
Tue 07:52:22 37.6875 -81.1197 12° North 500 575 33,000  Level Indianapolis Center
Tue 07:53:23 37.8217 -81.0828 12° North 501 577 33,000  Level Indianapolis Center
Tue 07:54:24 37.9544 -81.0458 12° North 502 578 33,000  Level Indianapolis Center
Tue 07:55:26 38.0906 -81.0081 12° North 502 578 33,000  Level Indianapolis Center
Tue 07:56:27 38.2269 -80.9694 13° North 502 578 33,000  Level Indianapolis Center
Tue 07:57:28 38.3644 -80.9300 13° North 506 582 33,000  Level Indianapolis Center
Tue 07:58:29 38.5014 -80.8914 12° North 508 585 33,000  Level Indianapolis Center
Tue 07:59:30 38.6658 -80.8444 13° North 508 585 33,000  Level Indianapolis Center
Tue 08:00:31 38.8031 -80.8044 13° North 509 586 33,000  Level Indianapolis Center
Tue 08:01:32 38.9419 -80.7644 13° North 514 592 33,000  Level Indianapolis Center
Tue 08:02:33 39.0789 -80.7064 18° North 525 604 33,000  Level Indianapolis Center
Tue 08:03:34 39.2172 -80.6506 17° North 521 600 33,000  Level Indianapolis Center
Tue 08:04:35 39.3547 -80.5928 18° North 521 600 33,000  Level Indianapolis Center
Tue 08:05:37 39.4947 -80.5372 17° North 526 605 33,000  Level Indianapolis Center
Tue 08:06:38 39.6322 -80.4786 18° North 522 601 33,000  Level Indianapolis Center
Tue 08:07:39 39.7706 -80.4206 18° North 523 602 33,000  Level Indianapolis Center
Tue 08:08:40 39.9097 -80.3628 18° North 523 602 33,000  Level Indianapolis Center
Tue 08:09:41 40.0481 -80.3039 18° North 524 603 33,000  Level Indianapolis Center
Tue 08:10:42 40.2131 -80.2339 18° North 519 597 33,000  Level Indianapolis Center
Tue 08:11:43 40.3311 -80.1842 18° North 518 596 33,000 -42 Level Indianapolis Center
Tue 08:13:05 40.5178 -80.1039 18° North 518 596 32,900 -420 Descending Cleveland Center
Tue 08:14:06 40.6567 -80.0450 18° North 523 602 32,000 -934 Descending Cleveland Center
Tue 08:15:07 40.8164 -79.9753 18° North 529 609 31,000 -836 Descending Cleveland Center
Tue 08:16:08 40.9553 -79.9161 18° North 525 604 30,300 -787 Descending Cleveland Center
Tue 08:17:09 41.0950 -79.8550 18° North 528 608 29,400 -976 Descending Cleveland Center
Tue 08:18:11 41.2397 -79.7900 19° North 518 596 28,300 -1,024 Descending Cleveland Center
Tue 08:19:12 41.3769 -79.7294 18° North 518 596 27,300 -984 Descending Cleveland Center
Tue 08:20:13 41.5114 -79.6703 18° North 510 587 26,300 -984 Descending Cleveland Center
Tue 08:21:14 41.6406 -79.6136 18° North 494 568 25,300 -976 Descending Cleveland Center
Tue 08:22:16 41.7694 -79.5550 19° North 489 563 24,300 -976 Descending Cleveland Center
Tue 08:23:17 41.8953 -79.4992 18° North 479 551 23,300 -984 Descending Cleveland Center
Tue 08:24:18 42.0181 -79.4447 18° North 467 537 22,300 -1,180 Descending Cleveland Center
Tue 08:25:19 42.1372 -79.3914 18° North 455 524 20,900 -1,756 Descending Cleveland Center
Tue 08:26:21 42.2794 -79.3275 18° North 449 517 18,700 -1,902 Descending Cleveland Center
Tue 08:27:22 42.3914 -79.2753 19° North 429 494 17,000 -1,770 Descending Cleveland Center
Tue 08:28:23 42.4850 -79.2331 18° North 406 467 15,100 -2,066 Descending Cleveland Center
Tue 08:29:24 42.6056 -79.1778 19° North 383 441 12,800 -1,707 Descending Cleveland Center
Tue 08:30:26 42.6983 -79.1353 19° North 353 406 11,600 -976 Descending Cleveland Center
Tue 08:31:27 42.7814 -79.0967 19° North 317 365 10,800 -1,279 Descending Cleveland Center
Tue 08:32:28 42.8639 -79.0603 18° North 297 342 9,000 -1,122 Descending Cleveland Center
Tue 08:33:30 42.9325 -79.0269 20° North 277 319 8,500 -634 Descending Cleveland Center
Tue 08:34:31 43.0022 -78.9836 24° Northeast 271 312 7,700 -1,279 Descending Cleveland Center
Tue 08:35:32 43.0122 -78.8797 82° East 265 305 5,900 -1,248 Descending Cleveland Center
Tue 08:36:12 43.0167 -78.8167 84° East 256 295 5,600 -900 Descending Buffalo TRACON
Tue 08:37:12 43.0167 -78.7167 90° East 248 285 4,400 -1,050 Descending Buffalo TRACON
Tue 08:38:12 43.0667 -78.6833 26° Northeast 226 260 3,500 -750 Descending Buffalo TRACON
Tue 08:39:12 43.1000 -78.7500 304° West 193 222 2,900 -700 Descending Buffalo TRACON
Tue 08:40:12 43.1167 -78.8167 289° West 182 209 2,100 -750 Descending Buffalo TRACON
Tue 08:41:12 43.1167 -78.8667 270° West 132 152 1,400 -700 Descending Buffalo TRACON

Login

Don't have an account? Register now (free) for customized features, flight alerts, and more!